sensor_id;sensor_type;location;lat;lon;timestamp;pressure;altitude;pressure_sealevel;temperature;humidity
20156;BME280;10238;49.556;10.956;2023-04-07T00:02:50;98363.94;;;1.74;100.00
20156;BME280;10238;49.556;10.956;2023-04-07T00:05:39;98361.72;;;1.68;100.00
20156;BME280;10238;49.556;10.956;2023-04-07T00:08:27;98367.63;;;1.72;100.00
20156;BME280;10238;49.556;10.956;2023-04-07T00:11:21;98367.50;;;1.73;100.00
20156;BME280;10238;49.556;10.956;2023-04-07T00:14:10;98348.81;;;1.65;100.00
20156;BME280;10238;49.556;10.956;2023-04-07T00:16:59;98361.59;;;1.57;100.00
20156;BME280;10238;49.556;10.956;2023-04-07T00:19:48;98363.47;;;1.55;100.00
20156;BME280;10238;49.556;10.956;2023-04-07T00:22:36;98359.06;;;1.56;100.00
20156;BME280;10238;49.556;10.956;2023-04-07T00:25:24;98361.78;;;1.54;100.00
20156;BME280;10238;49.556;10.956;2023-04-07T00:28:11;98352.75;;;1.46;100.00
20156;BME280;10238;49.556;10.956;2023-04-07T00:31:01;98355.66;;;1.41;100.00
20156;BME280;10238;49.556;10.956;2023-04-07T00:33:49;98346.34;;;1.37;100.00
20156;BME280;10238;49.556;10.956;2023-04-07T00:36:37;98343.91;;;1.34;100.00
20156;BME280;10238;49.556;10.956;2023-04-07T00:39:25;98338.56;;;1.36;100.00
20156;BME280;10238;49.556;10.956;2023-04-07T00:42:14;98332.59;;;1.34;100.00
20156;BME280;10238;49.556;10.956;2023-04-07T00:45:02;98326.16;;;1.25;100.00
20156;BME280;10238;49.556;10.956;2023-04-07T00:47:53;98329.94;;;1.21;100.00
20156;BME280;10238;49.556;10.956;2023-04-07T00:50:41;98336.47;;;1.14;100.00
20156;BME280;10238;49.556;10.956;2023-04-07T00:53:32;98327.03;;;1.12;100.00
20156;BME280;10238;49.556;10.956;2023-04-07T00:56:20;98329.84;;;1.09;100.00
20156;BME280;10238;49.556;10.956;2023-04-07T00:59:08;98323.03;;;1.06;100.00
20156;BME280;10238;49.556;10.956;2023-04-07T01:02:02;98331.00;;;1.05;100.00
20156;BME280;10238;49.556;10.956;2023-04-07T01:05:01;98327.72;;;1.01;100.00
20156;BME280;10238;49.556;10.956;2023-04-07T01:08:00;98315.97;;;0.94;100.00
20156;BME280;10238;49.556;10.956;2023-04-07T01:10:59;98320.44;;;0.92;100.00
20156;BME280;10238;49.556;10.956;2023-04-07T01:14:14;98318.00;;;0.89;100.00
20156;BME280;10238;49.556;10.956;2023-04-07T01:17:06;98324.38;;;0.85;100.00
20156;BME280;10238;49.556;10.956;2023-04-07T01:20:02;98312.44;;;0.81;100.00
20156;BME280;10238;49.556;10.956;2023-04-07T01:22:55;98303.63;;;0.82;100.00
20156;BME280;10238;49.556;10.956;2023-04-07T01:25:59;98312.63;;;0.78;100.00
20156;BME280;10238;49.556;10.956;2023-04-07T01:32:24;98312.28;;;0.70;100.00
20156;BME280;10238;49.556;10.956;2023-04-07T01:35:14;98316.75;;;0.68;100.00
20156;BME280;10238;49.556;10.956;2023-04-07T01:38:03;98311.53;;;0.68;100.00
20156;BME280;10238;49.556;10.956;2023-04-07T01:40:53;98309.94;;;0.66;100.00
20156;BME280;10238;49.556;10.956;2023-04-07T01:43:42;98306.66;;;0.62;100.00
20156;BME280;10238;49.556;10.956;2023-04-07T01:46:34;98309.28;;;0.62;100.00
20156;BME280;10238;49.556;10.956;2023-04-07T01:49:25;98302.47;;;0.60;100.00
20156;BME280;10238;49.556;10.956;2023-04-07T01:52:14;98299.09;;;0.58;100.00
20156;BME280;10238;49.556;10.956;2023-04-07T01:55:04;98300.97;;;0.56;100.00
20156;BME280;10238;49.556;10.956;2023-04-07T01:57:53;98301.63;;;0.59;100.00
20156;BME280;10238;49.556;10.956;2023-04-07T02:00:52;98301.63;;;0.59;100.00
20156;BME280;10238;49.556;10.956;2023-04-07T02:03:46;98299.00;;;0.59;100.00
20156;BME280;10238;49.556;10.956;2023-04-07T02:06:41;98292.00;;;0.60;100.00
20156;BME280;10238;49.556;10.956;2023-04-07T02:09:31;98291.16;;;0.59;100.00
20156;BME280;10238;49.556;10.956;2023-04-07T02:12:20;98289.31;;;0.61;100.00
20156;BME280;10238;49.556;10.956;2023-04-07T02:15:10;98280.59;;;0.61;100.00
20156;BME280;10238;49.556;10.956;2023-04-07T02:18:00;98284.88;;;0.62;100.00
20156;BME280;10238;49.556;10.956;2023-04-07T02:20:50;98285.75;;;0.62;100.00
20156;BME280;10238;49.556;10.956;2023-04-07T02:23:44;98276.94;;;0.63;100.00
20156;BME280;10238;49.556;10.956;2023-04-07T02:26:34;98274.44;;;0.62;100.00
20156;BME280;10238;49.556;10.956;2023-04-07T02:29:22;98284.88;;;0.62;100.00
20156;BME280;10238;49.556;10.956;2023-04-07T02:32:10;98277.91;;;0.62;100.00
20156;BME280;10238;49.556;10.956;2023-04-07T02:34:58;98272.56;;;0.64;100.00
20156;BME280;10238;49.556;10.956;2023-04-07T02:37:47;98277.81;;;0.64;100.00
20156;BME280;10238;49.556;10.956;2023-04-07T02:40:37;98272.09;;;0.71;100.00
20156;BME280;10238;49.556;10.956;2023-04-07T02:43:25;98270.31;;;0.72;100.00
20156;BME280;10238;49.556;10.956;2023-04-07T02:46:19;98268.63;;;0.71;100.00
20156;BME280;10238;49.556;10.956;2023-04-07T02:49:07;98274.53;;;0.74;100.00
20156;BME280;10238;49.556;10.956;2023-04-07T02:51:57;98278.06;;;0.73;100.00
20156;BME280;10238;49.556;10.956;2023-04-07T02:54:48;98276.38;;;0.72;100.00
20156;BME280;10238;49.556;10.956;2023-04-07T02:57:37;98271.34;;;0.69;100.00
20156;BME280;10238;49.556;10.956;2023-04-07T03:00:25;98277.53;;;0.68;100.00
20156;BME280;10238;49.556;10.956;2023-04-07T03:03:13;98271.44;;;0.68;100.00
20156;BME280;10238;49.556;10.956;2023-04-07T03:06:05;98273.22;;;0.67;100.00
20156;BME280;10238;49.556;10.956;2023-04-07T03:08:53;98277.72;;;0.65;100.00
20156;BME280;10238;49.556;10.956;2023-04-07T03:11:41;98278.66;;;0.64;100.00
20156;BME280;10238;49.556;10.956;2023-04-07T03:14:32;98276.94;;;0.63;100.00
20156;BME280;10238;49.556;10.956;2023-04-07T03:17:20;98265.56;;;0.64;100.00
20156;BME280;10238;49.556;10.956;2023-04-07T03:20:09;98265.19;;;0.70;100.00
20156;BME280;10238;49.556;10.956;2023-04-07T03:22:56;98268.16;;;0.78;100.00
20156;BME280;10238;49.556;10.956;2023-04-07T03:25:45;98263.88;;;0.77;100.00
20156;BME280;10238;49.556;10.956;2023-04-07T03:28:34;98265.53;;;0.78;100.00
20156;BME280;10238;49.556;10.956;2023-04-07T03:31:24;98272.25;;;0.82;100.00
20156;BME280;10238;49.556;10.956;2023-04-07T03:34:11;98277.47;;;0.82;100.00
20156;BME280;10238;49.556;10.956;2023-04-07T03:36:59;98269.00;;;0.79;100.00
20156;BME280;10238;49.556;10.956;2023-04-07T03:39:47;98263.88;;;0.77;100.00
20156;BME280;10238;49.556;10.956;2023-04-07T03:42:37;98261.25;;;0.77;100.00
20156;BME280;10238;49.556;10.956;2023-04-07T03:45:25;98266.47;;;0.77;100.00
20156;BME280;10238;49.556;10.956;2023-04-07T03:48:21;98257.78;;;0.77;100.00
20156;BME280;10238;49.556;10.956;2023-04-07T03:51:08;98256.94;;;0.76;100.00
20156;BME280;10238;49.556;10.956;2023-04-07T03:54:00;98254.31;;;0.76;100.00
20156;BME280;10238;49.556;10.956;2023-04-07T03:56:48;98261.25;;;0.77;100.00
20156;BME280;10238;49.556;10.956;2023-04-07T03:59:36;98250.69;;;0.79;100.00
20156;BME280;10238;49.556;10.956;2023-04-07T04:02:25;98251.50;;;0.79;100.00
20156;BME280;10238;49.556;10.956;2023-04-07T04:05:15;98255.72;;;0.82;100.00
20156;BME280;10238;49.556;10.956;2023-04-07T04:08:03;98254.50;;;0.87;100.00
20156;BME280;10238;49.556;10.956;2023-04-07T04:10:54;98251.88;;;0.87;100.00
20156;BME280;10238;49.556;10.956;2023-04-07T04:13:42;98250.94;;;0.88;100.00
20156;BME280;10238;49.556;10.956;2023-04-07T04:16:31;98253.44;;;0.90;100.00
20156;BME280;10238;49.556;10.956;2023-04-07T04:19:21;98254.31;;;0.90;100.00
20156;BME280;10238;49.556;10.956;2023-04-07T04:22:13;98254.31;;;0.90;100.00
20156;BME280;10238;49.556;10.956;2023-04-07T04:25:01;98253.16;;;0.94;100.00
20156;BME280;10238;49.556;10.956;2023-04-07T04:27:49;98257.44;;;0.95;100.00
20156;BME280;10238;49.556;10.956;2023-04-07T04:30:37;98252.03;;;0.98;100.00
20156;BME280;10238;49.556;10.956;2023-04-07T04:33:25;98246.78;;;0.98;100.00
20156;BME280;10238;49.556;10.956;2023-04-07T04:36:16;98246.59;;;1.01;100.00
20156;BME280;10238;49.556;10.956;2023-04-07T04:39:06;98246.19;;;1.07;100.00
20156;BME280;10238;49.556;10.956;2023-04-07T04:41:55;98253.09;;;1.08;100.00
20156;BME280;10238;49.556;10.956;2023-04-07T04:44:43;98255.00;;;1.06;100.00
20156;BME280;10238;49.556;10.956;2023-04-07T04:47:31;98256.66;;;1.07;100.00
20156;BME280;10238;49.556;10.956;2023-04-07T04:50:23;98260.25;;;1.19;100.00
20156;BME280;10238;49.556;10.956;2023-04-07T04:53:13;98263.63;;;1.21;100.00
20156;BME280;10238;49.556;10.956;2023-04-07T04:56:09;98262.78;;;1.20;100.00
20156;BME280;10238;49.556;10.956;2023-04-07T04:58:57;98271.38;;;1.22;100.00
20156;BME280;10238;49.556;10.956;2023-04-07T05:01:45;98269.09;;;1.30;100.00
20156;BME280;10238;49.556;10.956;2023-04-07T05:04:33;98259.69;;;1.28;100.00
20156;BME280;10238;49.556;10.956;2023-04-07T05:07:20;98257.31;;;1.37;100.00
20156;BME280;10238;49.556;10.956;2023-04-07T05:10:11;98269.78;;;1.46;100.00
20156;BME280;10238;49.556;10.956;2023-04-07T05:13:00;98273.50;;;1.56;100.00
20156;BME280;10238;49.556;10.956;2023-04-07T05:15:48;98282.63;;;1.63;100.00
20156;BME280;10238;49.556;10.956;2023-04-07T05:18:36;98283.88;;;1.70;100.00
20156;BME280;10238;49.556;10.956;2023-04-07T05:21:24;98285.34;;;1.74;100.00
20156;BME280;10238;49.556;10.956;2023-04-07T05:24:20;98283.47;;;1.76;100.00
20156;BME280;10238;49.556;10.956;2023-04-07T05:27:08;98280.97;;;1.87;100.00
20156;BME280;10238;49.556;10.956;2023-04-07T05:29:58;98280.34;;;1.96;100.00
20156;BME280;10238;49.556;10.956;2023-04-07T05:32:46;98281.59;;;2.03;100.00
20156;BME280;10238;49.556;10.956;2023-04-07T05:35:34;98267.16;;;2.10;100.00
20156;BME280;10238;49.556;10.956;2023-04-07T05:38:22;98270.50;;;2.12;100.00
20156;BME280;10238;49.556;10.956;2023-04-07T05:41:10;98271.13;;;2.28;100.00
20156;BME280;10238;49.556;10.956;2023-04-07T05:44:01;98268.63;;;2.40;100.00
20156;BME280;10238;49.556;10.956;2023-04-07T05:46:50;98265.47;;;2.47;100.00
20156;BME280;10238;49.556;10.956;2023-04-07T05:49:42;98264.91;;;2.55;100.00
20156;BME280;10238;49.556;10.956;2023-04-07T05:52:32;98254.50;;;2.66;100.00
20156;BME280;10238;49.556;10.956;2023-04-07T05:55:20;98256.47;;;2.75;100.00
20156;BME280;10238;49.556;10.956;2023-04-07T05:58:34;98251.50;;;2.83;100.00
20156;BME280;10238;49.556;10.956;2023-04-07T06:01:21;98257.78;;;2.93;100.00
20156;BME280;10238;49.556;10.956;2023-04-07T06:04:13;98253.44;;;3.04;100.00
20156;BME280;10238;49.556;10.956;2023-04-07T06:07:02;98249.09;;;3.16;100.00
20156;BME280;10238;49.556;10.956;2023-04-07T06:09:49;98254.28;;;3.28;100.00
20156;BME280;10238;49.556;10.956;2023-04-07T06:12:38;98248.59;;;3.34;100.00
20156;BME280;10238;49.556;10.956;2023-04-07T06:15:26;98261.41;;;3.50;100.00
20156;BME280;10238;49.556;10.956;2023-04-07T06:18:14;98252.59;;;3.51;100.00
20156;BME280;10238;49.556;10.956;2023-04-07T06:21:03;98253.09;;;3.56;100.00
20156;BME280;10238;49.556;10.956;2023-04-07T06:23:51;98251.31;;;3.67;100.00
20156;BME280;10238;49.556;10.956;2023-04-07T06:26:40;98252.81;;;3.82;100.00
20156;BME280;10238;49.556;10.956;2023-04-07T06:29:29;98250.81;;;3.97;100.00
20156;BME280;10238;49.556;10.956;2023-04-07T06:32:17;98257.31;;;4.15;100.00
20156;BME280;10238;49.556;10.956;2023-04-07T06:35:06;98254.31;;;4.30;100.00
20156;BME280;10238;49.556;10.956;2023-04-07T06:37:55;98252.91;;;4.48;100.00
20156;BME280;10238;49.556;10.956;2023-04-07T06:40:43;98249.44;;;4.59;100.00
20156;BME280;10238;49.556;10.956;2023-04-07T06:43:35;98250.28;;;4.71;100.00
20156;BME280;10238;49.556;10.956;2023-04-07T06:46:24;98247.41;;;4.74;100.00
20156;BME280;10238;49.556;10.956;2023-04-07T06:49:13;98250.16;;;4.72;100.00
20156;BME280;10238;49.556;10.956;2023-04-07T06:52:02;98245.78;;;4.93;100.00
20156;BME280;10238;49.556;10.956;2023-04-07T06:54:52;98244.91;;;5.15;100.00
20156;BME280;10238;49.556;10.956;2023-04-07T06:57:40;98240.53;;;5.36;100.00
20156;BME280;10238;49.556;10.956;2023-04-07T07:00:28;98230.22;;;5.44;100.00
20156;BME280;10238;49.556;10.956;2023-04-07T07:03:16;98234.41;;;5.46;100.00
20156;BME280;10238;49.556;10.956;2023-04-07T07:06:05;98229.38;;;5.43;100.00
20156;BME280;10238;49.556;10.956;2023-04-07T07:08:53;98231.44;;;5.60;100.00
20156;BME280;10238;49.556;10.956;2023-04-07T07:11:42;98229.22;;;5.76;100.00
20156;BME280;10238;49.556;10.956;2023-04-07T07:14:33;98233.28;;;5.80;100.00
20156;BME280;10238;49.556;10.956;2023-04-07T07:17:21;98232.97;;;5.94;100.00
20156;BME280;10238;49.556;10.956;2023-04-07T07:20:10;98229.50;;;6.14;100.00
20156;BME280;10238;49.556;10.956;2023-04-07T07:22:58;98222.91;;;6.29;100.00
20156;BME280;10238;49.556;10.956;2023-04-07T07:25:46;98218.69;;;6.47;100.00
20156;BME280;10238;49.556;10.956;2023-04-07T07:28:36;98229.25;;;6.47;100.00
20156;BME280;10238;49.556;10.956;2023-04-07T07:31:24;98220.97;;;6.61;100.00
20156;BME280;10238;49.556;10.956;2023-04-07T07:34:18;98234.69;;;6.86;100.00
20156;BME280;10238;49.556;10.956;2023-04-07T07:37:11;98223.72;;;7.09;100.00
20156;BME280;10238;49.556;10.956;2023-04-07T07:40:02;98232.28;;;7.32;100.00
20156;BME280;10238;49.556;10.956;2023-04-07T07:42:50;98226.44;;;7.38;100.00
20156;BME280;10238;49.556;10.956;2023-04-07T07:45:40;98232.44;;;7.59;100.00
20156;BME280;10238;49.556;10.956;2023-04-07T07:48:30;98225.88;;;7.82;100.00
20156;BME280;10238;49.556;10.956;2023-04-07T07:51:22;98230.16;;;8.02;100.00
20156;BME280;10238;49.556;10.956;2023-04-07T07:54:10;98226.25;;;8.25;100.00
20156;BME280;10238;49.556;10.956;2023-04-07T07:56:58;98228.59;;;8.28;100.00
20156;BME280;10238;49.556;10.956;2023-04-07T07:59:46;98224.19;;;8.55;99.40
20156;BME280;10238;49.556;10.956;2023-04-07T08:02:43;98217.06;;;8.65;96.37
20156;BME280;10238;49.556;10.956;2023-04-07T08:05:32;98221.13;;;8.87;97.66
20156;BME280;10238;49.556;10.956;2023-04-07T08:08:20;98214.72;;;9.07;94.42
20156;BME280;10238;49.556;10.956;2023-04-07T08:11:08;98209.69;;;9.31;93.66
20156;BME280;10238;49.556;10.956;2023-04-07T08:13:58;98206.59;;;9.53;90.93
20156;BME280;10238;49.556;10.956;2023-04-07T08:16:47;98216.69;;;9.67;88.34
20156;BME280;10238;49.556;10.956;2023-04-07T08:19:36;98203.59;;;9.91;88.71
20156;BME280;10238;49.556;10.956;2023-04-07T08:22:24;98201.16;;;10.15;85.64
20156;BME280;10238;49.556;10.956;2023-04-07T08:25:12;98194.31;;;10.38;85.72
20156;BME280;10238;49.556;10.956;2023-04-07T08:28:01;98204.78;;;10.65;83.33
20156;BME280;10238;49.556;10.956;2023-04-07T08:30:50;98191.25;;;10.84;79.23
20156;BME280;10238;49.556;10.956;2023-04-07T08:33:39;98204.28;;;11.04;80.99
20156;BME280;10238;49.556;10.956;2023-04-07T08:36:29;98203.69;;;11.26;81.56
20156;BME280;10238;49.556;10.956;2023-04-07T08:39:18;98201.06;;;11.42;81.33
20156;BME280;10238;49.556;10.956;2023-04-07T08:42:07;98186.13;;;11.65;80.39
20156;BME280;10238;49.556;10.956;2023-04-07T08:44:57;98197.31;;;11.84;74.98
20156;BME280;10238;49.556;10.956;2023-04-07T08:47:54;98193.94;;;12.06;78.42
20156;BME280;10238;49.556;10.956;2023-04-07T08:50:45;98190.78;;;12.11;73.14
20156;BME280;10238;49.556;10.956;2023-04-07T08:53:42;98191.78;;;12.18;75.51
20156;BME280;10238;49.556;10.956;2023-04-07T08:56:37;98189.06;;;12.42;74.97
20156;BME280;10238;49.556;10.956;2023-04-07T08:59:28;98190.16;;;12.63;75.73
20156;BME280;10238;49.556;10.956;2023-04-07T09:02:20;98193.63;;;12.80;75.69
20156;BME280;10238;49.556;10.956;2023-04-07T09:05:11;98188.44;;;12.86;70.25
20156;BME280;10238;49.556;10.956;2023-04-07T09:08:01;98190.38;;;13.09;73.31
20156;BME280;10238;49.556;10.956;2023-04-07T09:10:51;98203.16;;;13.21;72.45
20156;BME280;10238;49.556;10.956;2023-04-07T09:13:39;98194.75;;;13.55;72.07
20156;BME280;10238;49.556;10.956;2023-04-07T09:16:28;98189.00;;;13.88;70.59
20156;BME280;10238;49.556;10.956;2023-04-07T09:19:16;98189.94;;;13.95;69.18
20156;BME280;10238;49.556;10.956;2023-04-07T09:22:04;98188.53;;;13.85;68.95
20156;BME280;10238;49.556;10.956;2023-04-07T09:24:53;98182.50;;;14.05;68.20
20156;BME280;10238;49.556;10.956;2023-04-07T09:28:00;98179.84;;;14.20;64.48
20156;BME280;10238;49.556;10.956;2023-04-07T09:30:52;98182.16;;;14.60;68.69
20156;BME280;10238;49.556;10.956;2023-04-07T09:33:40;98178.38;;;14.83;68.76
20156;BME280;10238;49.556;10.956;2023-04-07T09:36:29;98177.63;;;15.04;69.44
20156;BME280;10238;49.556;10.956;2023-04-07T09:39:27;98169.53;;;15.33;67.60
20156;BME280;10238;49.556;10.956;2023-04-07T09:42:19;98170.69;;;15.60;66.26
20156;BME280;10238;49.556;10.956;2023-04-07T09:45:10;98170.28;;;16.05;67.52
20156;BME280;10238;49.556;10.956;2023-04-07T09:48:19;98163.19;;;16.46;65.17
20156;BME280;10238;49.556;10.956;2023-04-07T09:51:09;98153.72;;;16.84;63.61
20156;BME280;10238;49.556;10.956;2023-04-07T09:53:57;98152.94;;;16.96;60.47
20156;BME280;10238;49.556;10.956;2023-04-07T09:56:44;98152.34;;;16.94;63.03
20156;BME280;10238;49.556;10.956;2023-04-07T09:59:37;98148.44;;;17.64;62.96
20156;BME280;10238;49.556;10.956;2023-04-07T10:02:29;98145.59;;;18.30;63.81
20156;BME280;10238;49.556;10.956;2023-04-07T10:05:18;98145.19;;;18.59;62.62
20156;BME280;10238;49.556;10.956;2023-04-07T10:08:11;98139.50;;;18.93;61.44
20156;BME280;10238;49.556;10.956;2023-04-07T10:11:01;98133.69;;;19.47;61.78
20156;BME280;10238;49.556;10.956;2023-04-07T10:13:49;98139.34;;;19.70;60.61
20156;BME280;10238;49.556;10.956;2023-04-07T10:16:38;98137.97;;;19.86;60.61
20156;BME280;10238;49.556;10.956;2023-04-07T10:19:32;98135.09;;;19.56;60.01
20156;BME280;10238;49.556;10.956;2023-04-07T10:22:22;98138.66;;;20.06;52.22
20156;BME280;10238;49.556;10.956;2023-04-07T10:25:13;98141.97;;;20.08;55.55
20156;BME280;10238;49.556;10.956;2023-04-07T10:28:08;98130.28;;;20.63;56.90
20156;BME280;10238;49.556;10.956;2023-04-07T10:31:01;98133.94;;;21.11;54.12
20156;BME280;10238;49.556;10.956;2023-04-07T10:33:52;98134.88;;;21.35;53.85
20156;BME280;10238;49.556;10.956;2023-04-07T10:37:09;98131.34;;;21.34;49.11
20156;BME280;10238;49.556;10.956;2023-04-07T10:40:27;98129.78;;;21.56;52.75
20156;BME280;10238;49.556;10.956;2023-04-07T10:43:36;98132.56;;;22.09;51.92
20156;BME280;10238;49.556;10.956;2023-04-07T10:50:16;98122.69;;;22.26;46.90
20156;BME280;10238;49.556;10.956;2023-04-07T10:53:08;98131.94;;;22.07;44.04
20156;BME280;10238;49.556;10.956;2023-04-07T10:55:57;98120.56;;;22.39;50.67
20156;BME280;10238;49.556;10.956;2023-04-07T10:58:45;98132.59;;;21.79;51.33
20156;BME280;10238;49.556;10.956;2023-04-07T11:01:33;98126.59;;;22.64;53.54
20156;BME280;10238;49.556;10.956;2023-04-07T11:04:36;98121.63;;;22.84;50.95
20156;BME280;10238;49.556;10.956;2023-04-07T11:07:44;98123.94;;;23.15;51.21
20156;BME280;10238;49.556;10.956;2023-04-07T11:10:34;98117.72;;;23.03;51.60
20156;BME280;10238;49.556;10.956;2023-04-07T11:13:22;98121.22;;;23.27;50.60
20156;BME280;10238;49.556;10.956;2023-04-07T11:16:10;98114.47;;;23.29;45.52
20156;BME280;10238;49.556;10.956;2023-04-07T11:18:57;98117.69;;;21.70;40.15
20156;BME280;10238;49.556;10.956;2023-04-07T11:21:45;98113.84;;;22.99;51.27
20156;BME280;10238;49.556;10.956;2023-04-07T11:24:33;98110.69;;;23.59;49.53
20156;BME280;10238;49.556;10.956;2023-04-07T11:27:25;98101.59;;;24.09;46.76
20156;BME280;10238;49.556;10.956;2023-04-07T11:30:15;98098.47;;;24.34;45.51
20156;BME280;10238;49.556;10.956;2023-04-07T11:33:06;98102.81;;;24.51;45.11
20156;BME280;10238;49.556;10.956;2023-04-07T11:35:58;98105.78;;;24.50;47.16
20156;BME280;10238;49.556;10.956;2023-04-07T11:38:47;98108.75;;;24.65;47.25
20156;BME280;10238;49.556;10.956;2023-04-07T11:41:45;98106.03;;;23.99;38.47
20156;BME280;10238;49.556;10.956;2023-04-07T11:44:43;98104.63;;;23.00;44.68
20156;BME280;10238;49.556;10.956;2023-04-07T11:47:36;98103.47;;;22.16;41.22
20156;BME280;10238;49.556;10.956;2023-04-07T11:50:41;98107.97;;;22.56;49.50
20156;BME280;10238;49.556;10.956;2023-04-07T11:53:32;98102.56;;;23.19;49.24
20156;BME280;10238;49.556;10.956;2023-04-07T11:56:20;98100.84;;;23.41;48.18
20156;BME280;10238;49.556;10.956;2023-04-07T11:59:07;98089.38;;;24.45;46.96
20156;BME280;10238;49.556;10.956;2023-04-07T12:01:59;98106.56;;;22.65;39.16
20156;BME280;10238;49.556;10.956;2023-04-07T12:04:56;98098.47;;;24.01;46.00
20156;BME280;10238;49.556;10.956;2023-04-07T12:07:55;98094.78;;;24.07;42.30
20156;BME280;10238;49.556;10.956;2023-04-07T12:10:44;98082.44;;;24.54;47.71
20156;BME280;10238;49.556;10.956;2023-04-07T12:13:32;98083.03;;;24.56;47.04
20156;BME280;10238;49.556;10.956;2023-04-07T12:16:28;98086.84;;;25.36;45.70
20156;BME280;10238;49.556;10.956;2023-04-07T12:19:17;98086.41;;;25.44;43.96
20156;BME280;10238;49.556;10.956;2023-04-07T12:22:05;98089.09;;;24.79;45.77
20156;BME280;10238;49.556;10.956;2023-04-07T12:24:52;98079.53;;;25.63;46.24
20156;BME280;10238;49.556;10.956;2023-04-07T12:27:40;98077.88;;;26.20;44.39
20156;BME280;10238;49.556;10.956;2023-04-07T12:30:29;98085.38;;;25.07;44.86
20156;BME280;10238;49.556;10.956;2023-04-07T12:33:17;98083.97;;;25.26;45.34
20156;BME280;10238;49.556;10.956;2023-04-07T12:36:07;98087.44;;;24.40;46.85
20156;BME280;10238;49.556;10.956;2023-04-07T12:38:58;98094.19;;;23.20;46.89
20156;BME280;10238;49.556;10.956;2023-04-07T12:41:45;98087.84;;;25.08;45.28
20156;BME280;10238;49.556;10.956;2023-04-07T12:44:33;98077.34;;;25.65;43.89
20156;BME280;10238;49.556;10.956;2023-04-07T12:47:24;98078.69;;;24.38;37.01
20156;BME280;10238;49.556;10.956;2023-04-07T12:50:21;98082.19;;;24.55;42.05
20156;BME280;10238;49.556;10.956;2023-04-07T12:53:13;98074.50;;;24.31;40.93
20156;BME280;10238;49.556;10.956;2023-04-07T12:56:07;98072.34;;;23.83;41.06
20156;BME280;10238;49.556;10.956;2023-04-07T12:59:11;98082.09;;;25.05;43.38
20156;BME280;10238;49.556;10.956;2023-04-07T13:02:00;98077.28;;;25.87;42.26
20156;BME280;10238;49.556;10.956;2023-04-07T13:04:48;98086.59;;;26.17;41.31
20156;BME280;10238;49.556;10.956;2023-04-07T13:07:36;98084.84;;;26.06;39.62
20156;BME280;10238;49.556;10.956;2023-04-07T13:10:25;98085.56;;;25.97;39.55
20156;BME280;10238;49.556;10.956;2023-04-07T13:13:15;98090.63;;;25.57;39.93
20156;BME280;10238;49.556;10.956;2023-04-07T13:16:03;98092.41;;;25.46;39.49
20156;BME280;10238;49.556;10.956;2023-04-07T13:18:51;98094.00;;;25.42;39.31
20156;BME280;10238;49.556;10.956;2023-04-07T13:21:38;98083.16;;;24.82;39.17
20156;BME280;10238;49.556;10.956;2023-04-07T13:24:32;98094.38;;;25.07;39.92
20156;BME280;10238;49.556;10.956;2023-04-07T13:27:21;98096.28;;;24.69;40.46
20156;BME280;10238;49.556;10.956;2023-04-07T13:30:10;98090.72;;;24.97;40.85
20156;BME280;10238;49.556;10.956;2023-04-07T13:32:58;98086.63;;;24.78;39.49
20156;BME280;10238;49.556;10.956;2023-04-07T13:35:46;98090.09;;;24.57;40.19
20156;BME280;10238;49.556;10.956;2023-04-07T13:38:35;98091.78;;;24.41;39.33
20156;BME280;10238;49.556;10.956;2023-04-07T13:41:22;98089.81;;;24.37;40.47
20156;BME280;10238;49.556;10.956;2023-04-07T13:44:11;98096.41;;;24.08;39.23
20156;BME280;10238;49.556;10.956;2023-04-07T13:46:59;98088.81;;;23.93;40.21
20156;BME280;10238;49.556;10.956;2023-04-07T13:49:49;98085.34;;;23.81;40.02
20156;BME280;10238;49.556;10.956;2023-04-07T13:52:37;98090.47;;;23.94;40.14
20156;BME280;10238;49.556;10.956;2023-04-07T13:55:25;98086.97;;;23.66;39.97
20156;BME280;10238;49.556;10.956;2023-04-07T13:58:13;98084.44;;;23.48;40.74
20156;BME280;10238;49.556;10.956;2023-04-07T14:01:02;98084.38;;;23.31;40.92
20156;BME280;10238;49.556;10.956;2023-04-07T14:03:50;98087.81;;;23.26;41.99
20156;BME280;10238;49.556;10.956;2023-04-07T14:06:40;98093.72;;;23.23;42.17
20156;BME280;10238;49.556;10.956;2023-04-07T14:09:28;98092.69;;;23.01;42.38
20156;BME280;10238;49.556;10.956;2023-04-07T14:12:16;98092.53;;;22.80;42.61
20156;BME280;10238;49.556;10.956;2023-04-07T14:15:08;98094.78;;;22.48;40.28
20156;BME280;10238;49.556;10.956;2023-04-07T14:17:57;98088.91;;;22.51;42.63
20156;BME280;10238;49.556;10.956;2023-04-07T14:20:46;98099.00;;;22.10;41.31
20156;BME280;10238;49.556;10.956;2023-04-07T14:23:33;98082.41;;;22.29;43.34
20156;BME280;10238;49.556;10.956;2023-04-07T14:26:23;98087.22;;;22.27;43.51
20156;BME280;10238;49.556;10.956;2023-04-07T14:29:12;98089.78;;;21.99;43.86
20156;BME280;10238;49.556;10.956;2023-04-07T14:32:00;98096.63;;;21.61;44.00
20156;BME280;10238;49.556;10.956;2023-04-07T14:34:49;98088.72;;;21.48;44.09
20156;BME280;10238;49.556;10.956;2023-04-07T14:37:37;98090.31;;;21.37;43.41
20156;BME280;10238;49.556;10.956;2023-04-07T14:40:25;98093.66;;;21.21;44.42
20156;BME280;10238;49.556;10.956;2023-04-07T14:43:13;98094.84;;;21.25;45.38
20156;BME280;10238;49.556;10.956;2023-04-07T14:46:00;98088.84;;;21.23;44.34
20156;BME280;10238;49.556;10.956;2023-04-07T14:48:48;98088.53;;;21.13;43.89
20156;BME280;10238;49.556;10.956;2023-04-07T14:51:37;98087.75;;;21.12;45.15
20156;BME280;10238;49.556;10.956;2023-04-07T14:54:25;98093.19;;;21.24;44.74
20156;BME280;10238;49.556;10.956;2023-04-07T14:57:13;98091.84;;;21.33;45.04
20156;BME280;10238;49.556;10.956;2023-04-07T15:00:03;98088.94;;;21.46;45.12